Nashville, NC (27856)

6:21 PM EDT on April 28, 2017 (GMT -0400)
Nashville - Birchwood | | Change Station
Active Advisory: Flood Warning

Elev 223 ft 35.96 °N, 77.94 °W | Updated 13 seconds ago

Partly Cloudy
Partly Cloudy
91.0 °F
Feels Like 98 °F
N
0.0
Wind Variable Wind from SSW
Gusts 0.0 mph

Today
High -- | Low -- °F
--% Chance of Precip.
Yesterday
High -- | Low -- °F
Precip. -- in
Pressure 30.04 in
Visibility 10.0 miles
Clouds Few 5500 ft
Heat Index 98 °F
Dew Point 72 °F
Humidity 53%
Rainfall 0.00 in
Snow Depth Not available.
6:22 AM 7:56 PM
Waxing Crescent, 9% visible
METAR KRWI 282153Z AUTO 20008KT 10SM FEW055 31/19 A3004 RMK AO2 SLP171 T03060194
Pressure 30.04 in
Visibility 10.0 miles
Clouds Few 5500 ft
Heat Index 98 °F
Dew Point 72 °F
Humidity 53%
Rainfall 0.00 in
Snow Depth Not available.
6:22 AM 7:56 PM
Waxing Crescent, 9% visible
METAR KRWI 282153Z AUTO 20008KT 10SM FEW055 31/19 A3004 RMK AO2 SLP171 T03060194

Get Your Daily Forecast Email!

Thanks for signing up!

Be on the lookout for a verification email in your inbox.

You'll start receiving severe weather alerts in your inbox..

×

10-Day Weather Forecast

Almanac

Astronomy

Apr. 28, 2017 Rise Set
Actual Time
Civil Twilight
Nautical Twilight
Astronomical Twilight
Moon
Length of Visible Light
Length of Day
Tomorrow will be .
, % of the Moon is Illuminated

Today's Extremes

State Highs State Lows

Community

WunderPhotos

WunderBlog® & News

Nearby

Air Quality

  Air Quality AQ Index Pollutant
Not available.

Snow Depth

Station Depth Elevation

Earthquake Activity

City Distance Mag. Time & Date
Minimum magnitude displayed is 2.5.

Coastal Water Temperatures

Place Temperature

Stations

Nearby Weather Stations

Station Location Temp. Windchill Dew Point Humidity Wind Precip. Elev Updated Type
                   

Watches & Warnings

Flood Warning
Issued: 9:48 AM EDT Apr. 28, 2017 – National Weather Service

The Flood Warning continues for the Fishing Creek at Enfield.
* At 9:15 am Friday the stage was 17.6 feet.
* Flood stage is 16.0 feet.
* Minor flooding is occurring and minor flooding is forecast.
* The river will continue to fall to below flood stage by tomorrow
late evening.
* Impact... at 16.0 feet, minor overflow occurs on both banks.


The following are the latest observations and 7 am forecast stages
for the next several days.

                 Fld observed forecast 7 am
location stg stg day time Sat sun Mon Tue Wed

Fishing Creek
Enfield 16 17.6 Fri 09 am 17.0 14.5 10.8 9.0 7.8


Lat... Lon 3617 7781 3616 7766 3608 7749 3603 7754
          3610 7767 3611 7783